Time;durP1;ratioP1;P1;durP2;ratioP2;P2;SDS_P1;SDS_P2;PMS_P1;PMS_P2;Temp;Humidity;BMP_temperature;BMP_pressure;BME280_temperature;BME280_humidity;BME280_pressure;Samples;Min_cycle;Max_cycle;Signal;HPM_P1;HPM_P2
2022/05/21 00:00:14;;;;;;;14.50;7.20;;;;;;;;;;4994174;28;20039;-63
2022/05/21 00:02:41;;;;;;;19.27;8.00;;;;;;;;;;4977133;28;20136;-63
2022/05/21 00:05:07;;;;;;;23.02;8.95;;;;;;;;;;4992414;28;20041;-63
2022/05/21 00:07:34;;;;;;;17.85;8.32;;;;;;;;;;4991930;28;20042;-62
2022/05/21 00:10:00;;;;;;;19.88;8.30;;;;;;;;;;4992455;28;20117;-63
2022/05/21 00:12:26;;;;;;;22.77;9.80;;;;;;;;;;4992891;28;20050;-63
2022/05/21 00:14:53;;;;;;;19.02;9.25;;;;;;;;;;4995260;28;20058;-63
2022/05/21 00:17:19;;;;;;;18.17;10.43;;;;;;;;;;4993567;28;20124;-62
2022/05/21 00:19:45;;;;;;;26.15;12.32;;;;;;;;;;4998410;28;20042;-63
2022/05/21 00:22:11;;;;;;;29.10;12.80;;;;;;;;;;4997511;28;20042;-62
2022/05/21 00:24:38;;;;;;;33.83;13.60;;;;;;;;;;4992650;28;20449;-63
2022/05/21 00:27:05;;;;;;;29.13;14.45;;;;;;;;;;4994276;28;20038;-62
2022/05/21 00:29:31;;;;;;;33.05;15.65;;;;;;;;;;4991202;28;20050;-63
2022/05/21 00:31:57;;;;;;;30.90;17.27;;;;;;;;;;4996999;28;20041;-62
2022/05/21 00:34:24;;;;;;;33.60;18.92;;;;;;;;;;4996125;28;20034;-63
2022/05/21 00:36:51;;;;;;;42.28;20.98;;;;;;;;;;4996147;28;20054;-62
2022/05/21 00:39:17;;;;;;;41.90;22.85;;;;;;;;;;4992530;28;20045;-63
2022/05/21 00:41:44;;;;;;;43.53;22.80;;;;;;;;;;4994106;28;20404;-62
2022/05/21 00:44:10;;;;;;;41.92;24.58;;;;;;;;;;4996371;28;20038;-62
2022/05/21 00:46:38;;;;;;;51.05;25.40;;;;;;;;;;4995123;28;20081;-62
2022/05/21 00:49:07;;;;;;;45.10;25.15;;;;;;;;;;4985406;28;20487;-62
2022/05/21 00:51:38;;;;;;;55.50;25.75;;;;;;;;;;4979130;28;20065;-62
2022/05/21 00:54:05;;;;;;;46.70;25.52;;;;;;;;;;4993298;28;20038;-62
2022/05/21 00:56:32;;;;;;;45.63;25.50;;;;;;;;;;4993282;28;20125;-62
2022/05/21 01:01:46;;;;;;;41.10;23.70;;;;;;;;;;4984601;28;20435;-62
2022/05/21 01:04:12;;;;;;;52.40;27.02;;;;;;;;;;4996724;28;20048;-63
2022/05/21 01:06:39;;;;;;;44.75;23.60;;;;;;;;;;4999486;28;20042;-62
2022/05/21 01:09:05;;;;;;;40.47;24.25;;;;;;;;;;4997894;28;20454;-62
2022/05/21 01:11:32;;;;;;;38.60;22.75;;;;;;;;;;4997690;28;20050;-62
2022/05/21 01:13:59;;;;;;;33.90;21.02;;;;;;;;;;4998622;28;20030;-63
2022/05/21 01:16:26;;;;;;;43.60;23.38;;;;;;;;;;4996062;28;20140;-63
2022/05/21 01:18:52;;;;;;;51.03;23.40;;;;;;;;;;4996261;28;20042;-63
2022/05/21 01:21:18;;;;;;;42.95;23.08;;;;;;;;;;4996204;28;20038;-63
2022/05/21 01:23:45;;;;;;;41.00;22.98;;;;;;;;;;4993584;28;20108;-63
2022/05/21 01:26:14;;;;;;;54.78;23.65;;;;;;;;;;5002374;28;20586;-63
2022/05/21 01:28:41;;;;;;;44.80;22.15;;;;;;;;;;5001161;28;20049;-62
2022/05/21 01:31:08;;;;;;;45.10;22.00;;;;;;;;;;5000519;28;20441;-62
2022/05/21 01:33:36;;;;;;;42.58;22.25;;;;;;;;;;4999768;28;20046;-63
2022/05/21 01:36:03;;;;;;;48.72;23.33;;;;;;;;;;4962617;28;20169;-62
2022/05/21 01:38:30;;;;;;;42.97;20.75;;;;;;;;;;4981923;28;20042;-62
2022/05/21 01:40:57;;;;;;;44.40;20.15;;;;;;;;;;4977668;28;20038;-62
2022/05/21 01:46:10;;;;;;;50.85;20.88;;;;;;;;;;4978110;28;20054;-63
2022/05/21 01:48:36;;;;;;;45.55;21.48;;;;;;;;;;4976174;28;20069;-62
2022/05/21 01:51:02;;;;;;;38.35;20.52;;;;;;;;;;4976306;28;20062;-62
2022/05/21 01:53:29;;;;;;;39.30;19.65;;;;;;;;;;4973271;28;20347;-62
2022/05/21 01:55:57;;;;;;;44.70;21.80;;;;;;;;;;4972072;28;20465;-62
2022/05/21 01:58:23;;;;;;;44.55;17.95;;;;;;;;;;4972723;28;20501;-63
2022/05/21 02:00:49;;;;;;;39.75;16.00;;;;;;;;;;4973649;28;20127;-62
2022/05/21 02:03:16;;;;;;;42.13;14.77;;;;;;;;;;4976832;28;20034;-62
2022/05/21 02:05:45;;;;;;;37.05;12.95;;;;;;;;;;4975955;28;20083;-62
2022/05/21 02:08:13;;;;;;;48.10;13.13;;;;;;;;;;4975450;28;20086;-63
2022/05/21 02:10:40;;;;;;;39.35;12.57;;;;;;;;;;4963527;28;20509;-62
2022/05/21 02:13:06;;;;;;;40.17;12.25;;;;;;;;;;4978780;28;20043;-62
2022/05/21 02:15:33;;;;;;;30.67;10.95;;;;;;;;;;4978761;28;20506;-63
2022/05/21 02:17:59;;;;;;;37.75;10.82;;;;;;;;;;4975754;28;20043;-62
2022/05/21 02:20:25;;;;;;;39.65;10.45;;;;;;;;;;4976131;28;20049;-62
2022/05/21 02:22:52;;;;;;;39.78;10.77;;;;;;;;;;4974241;28;20054;-63
2022/05/21 02:25:18;;;;;;;45.17;10.38;;;;;;;;;;4959441;28;20082;-63
2022/05/21 02:27:44;;;;;;;38.45;10.38;;;;;;;;;;4976975;28;20041;-63
2022/05/21 02:30:11;;;;;;;37.08;9.05;;;;;;;;;;4976734;28;20039;-63
2022/05/21 02:32:37;;;;;;;28.98;8.38;;;;;;;;;;4976568;28;20057;-63
2022/05/21 02:35:03;;;;;;;47.42;9.07;;;;;;;;;;4985557;28;20440;-62
2022/05/21 02:40:14;;;;;;;26.05;6.47;;;;;;;;;;4994837;28;20046;-62
2022/05/21 02:42:43;;;;;;;30.10;7.00;;;;;;;;;;4993694;28;20050;-62
2022/05/21 02:45:12;;;;;;;41.63;8.82;;;;;;;;;;4995124;28;20376;-62
2022/05/21 02:47:39;;;;;;;29.42;8.10;;;;;;;;;;4995702;28;20073;-63
2022/05/21 02:50:06;;;;;;;45.15;7.72;;;;;;;;;;4996595;28;20153;-63
2022/05/21 02:52:32;;;;;;;29.10;7.03;;;;;;;;;;4993972;28;20054;-62
2022/05/21 02:54:58;;;;;;;35.65;7.00;;;;;;;;;;4984776;28;20046;-63
2022/05/21 02:57:24;;;;;;;35.35;6.63;;;;;;;;;;4994582;28;20042;-63
2022/05/21 02:59:51;;;;;;;47.45;7.90;;;;;;;;;;4994591;28;20061;-62
2022/05/21 03:02:18;;;;;;;31.83;7.38;;;;;;;;;;4992378;28;20121;-63
2022/05/21 03:04:44;;;;;;;35.38;7.72;;;;;;;;;;4991261;28;20081;-62
2022/05/21 03:07:11;;;;;;;40.70;8.85;;;;;;;;;;4993245;28;20497;-63
2022/05/21 03:12:33;;;;;;;34.65;7.25;;;;;;;;;;4995973;28;20046;-62
2022/05/21 03:14:59;;;;;;;24.98;5.82;;;;;;;;;;4998736;28;20045;-62
2022/05/21 03:17:26;;;;;;;31.85;6.50;;;;;;;;;;4996710;28;20166;-63
2022/05/21 03:19:52;;;;;;;22.25;5.57;;;;;;;;;;4994041;28;20064;-63
2022/05/21 03:22:18;;;;;;;27.50;5.70;;;;;;;;;;4993060;28;20061;-62
2022/05/21 03:24:45;;;;;;;36.03;8.10;;;;;;;;;;4992488;28;20144;-62
2022/05/21 03:27:11;;;;;;;33.30;6.82;;;;;;;;;;4985324;28;20049;-63
2022/05/21 03:29:37;;;;;;;28.75;6.35;;;;;;;;;;4995945;28;20046;-63
2022/05/21 03:32:04;;;;;;;32.45;6.20;;;;;;;;;;4996752;28;20050;-62
2022/05/21 03:34:31;;;;;;;27.67;7.07;;;;;;;;;;4994337;28;20411;-62
2022/05/21 03:36:58;;;;;;;23.45;6.45;;;;;;;;;;4994641;28;20061;-62
2022/05/21 03:39:24;;;;;;;28.90;5.75;;;;;;;;;;4981131;28;20141;-62
2022/05/21 03:41:50;;;;;;;24.38;5.50;;;;;;;;;;4996445;28;20049;-62
2022/05/21 03:44:16;;;;;;;25.13;6.15;;;;;;;;;;4992833;28;20393;-63
2022/05/21 03:46:42;;;;;;;23.27;5.30;;;;;;;;;;4994099;28;20042;-62
2022/05/21 03:49:09;;;;;;;22.20;4.53;;;;;;;;;;4996412;28;20065;-62
2022/05/21 03:51:37;;;;;;;23.17;4.82;;;;;;;;;;4995539;28;20140;-62
2022/05/21 03:54:03;;;;;;;23.08;4.65;;;;;;;;;;4992578;28;20076;-62
2022/05/21 03:56:30;;;;;;;24.02;5.47;;;;;;;;;;4992089;28;20042;-62
2022/05/21 03:58:56;;;;;;;23.13;5.22;;;;;;;;;;4991200;28;20049;-62
2022/05/21 04:01:22;;;;;;;26.08;5.05;;;;;;;;;;4995124;28;20077;-62
2022/05/21 04:03:50;;;;;;;27.60;6.00;;;;;;;;;;4994161;28;20064;-62
2022/05/21 04:06:16;;;;;;;23.88;5.70;;;;;;;;;;4983148;28;20179;-62
2022/05/21 04:08:42;;;;;;;19.83;4.55;;;;;;;;;;4991181;28;20485;-62
2022/05/21 04:11:08;;;;;;;19.98;4.55;;;;;;;;;;4990636;28;20048;-62
2022/05/21 04:13:34;;;;;;;15.60;3.83;;;;;;;;;;4987448;28;20129;-62
2022/05/21 04:16:01;;;;;;;19.02;4.53;;;;;;;;;;4989535;28;20054;-62
2022/05/21 04:18:27;;;;;;;23.13;4.20;;;;;;;;;;4996616;28;20057;-62
2022/05/21 04:20:53;;;;;;;19.85;4.47;;;;;;;;;;4994658;28;20042;-62
2022/05/21 04:23:19;;;;;;;22.38;4.15;;;;;;;;;;4987323;28;20077;-63
2022/05/21 04:25:47;;;;;;;15.68;4.65;;;;;;;;;;4994124;28;20034;-62
2022/05/21 04:28:13;;;;;;;22.25;5.25;;;;;;;;;;4991948;28;20050;-62
2022/05/21 04:30:40;;;;;;;20.73;3.88;;;;;;;;;;4993761;28;20062;-62
2022/05/21 04:33:06;;;;;;;21.98;3.85;;;;;;;;;;4995598;28;20042;-62
2022/05/21 04:38:17;;;;;;;23.05;5.38;;;;;;;;;;4996579;28;20137;-62
2022/05/21 04:40:44;;;;;;;15.88;4.03;;;;;;;;;;4995535;28;20096;-63
2022/05/21 04:43:10;;;;;;;22.52;4.35;;;;;;;;;;4994666;28;20563;-62
2022/05/21 04:45:36;;;;;;;24.13;4.07;;;;;;;;;;4996762;28;20050;-63
2022/05/21 04:48:04;;;;;;;19.60;3.95;;;;;;;;;;4995269;28;20129;-63
2022/05/21 04:50:30;;;;;;;19.15;3.50;;;;;;;;;;4992733;28;20042;-63
2022/05/21 04:52:57;;;;;;;25.95;5.18;;;;;;;;;;4995637;28;20121;-63
2022/05/21 04:55:23;;;;;;;15.05;3.63;;;;;;;;;;4993910;28;20061;-63
2022/05/21 04:57:49;;;;;;;21.90;4.18;;;;;;;;;;4999879;28;20490;-62
2022/05/21 05:00:16;;;;;;;20.05;4.43;;;;;;;;;;4994065;28;20033;-63
2022/05/21 05:02:42;;;;;;;21.00;3.63;;;;;;;;;;4990329;28;20054;-62
2022/05/21 05:05:08;;;;;;;19.77;3.45;;;;;;;;;;4992455;28;20049;-62
2022/05/21 05:07:35;;;;;;;18.42;3.75;;;;;;;;;;4995488;28;20097;-63
2022/05/21 05:10:01;;;;;;;19.05;4.38;;;;;;;;;;4992664;28;20416;-62
2022/05/21 05:12:27;;;;;;;26.40;4.82;;;;;;;;;;4997096;28;20129;-62
2022/05/21 05:14:53;;;;;;;15.23;3.63;;;;;;;;;;4994420;28;20098;-62
2022/05/21 05:17:20;;;;;;;23.13;3.67;;;;;;;;;;4990564;28;20042;-63
2022/05/21 05:19:47;;;;;;;20.58;4.03;;;;;;;;;;4993080;28;20493;-62
2022/05/21 05:22:14;;;;;;;19.40;3.60;;;;;;;;;;4996530;28;20058;-62
2022/05/21 05:24:40;;;;;;;19.17;5.15;;;;;;;;;;4994843;28;20074;-62
2022/05/21 05:27:07;;;;;;;23.02;3.92;;;;;;;;;;4993437;28;20046;-63
2022/05/21 05:29:33;;;;;;;25.67;5.13;;;;;;;;;;4994402;28;20384;-62
2022/05/21 05:31:59;;;;;;;20.50;3.80;;;;;;;;;;4990158;28;20050;-63
2022/05/21 05:34:25;;;;;;;23.25;3.97;;;;;;;;;;4994041;28;20038;-63
2022/05/21 05:36:52;;;;;;;23.88;4.32;;;;;;;;;;4996259;28;20038;-62
2022/05/21 05:39:18;;;;;;;17.90;3.42;;;;;;;;;;4995618;28;20117;-62
2022/05/21 05:41:44;;;;;;;25.65;4.38;;;;;;;;;;4997028;28;20496;-62
2022/05/21 05:44:11;;;;;;;19.15;3.45;;;;;;;;;;4994530;28;20038;-63
2022/05/21 05:46:37;;;;;;;16.35;3.97;;;;;;;;;;4992583;28;20457;-62
2022/05/21 05:49:03;;;;;;;22.77;5.18;;;;;;;;;;4996298;28;20421;-62
2022/05/21 05:51:29;;;;;;;22.48;3.83;;;;;;;;;;4997444;28;20045;-62
2022/05/21 05:53:56;;;;;;;21.10;5.18;;;;;;;;;;4980320;28;20050;-62
2022/05/21 05:56:22;;;;;;;19.90;4.13;;;;;;;;;;4983672;28;20045;-62
2022/05/21 06:01:34;;;;;;;21.92;4.25;;;;;;;;;;4996094;28;20383;-62
2022/05/21 06:04:00;;;;;;;26.10;4.78;;;;;;;;;;4996177;28;20092;-62
2022/05/21 06:06:28;;;;;;;16.75;3.45;;;;;;;;;;4994365;28;20418;-62
2022/05/21 06:08:54;;;;;;;21.35;4.15;;;;;;;;;;4996392;28;20505;-62
2022/05/21 06:11:20;;;;;;;24.88;5.55;;;;;;;;;;4992719;28;20434;-62
2022/05/21 06:13:47;;;;;;;21.90;4.50;;;;;;;;;;4983391;28;20061;-62
2022/05/21 06:16:15;;;;;;;21.15;4.72;;;;;;;;;;4992044;28;20043;-62
2022/05/21 06:18:41;;;;;;;17.45;3.60;;;;;;;;;;4977250;28;20058;-62
2022/05/21 06:21:08;;;;;;;17.80;4.03;;;;;;;;;;4992440;28;20042;-62
2022/05/21 06:23:35;;;;;;;19.17;3.88;;;;;;;;;;4996972;28;20050;-63
2022/05/21 06:26:02;;;;;;;20.80;4.32;;;;;;;;;;4976176;28;20042;-63
2022/05/21 06:28:29;;;;;;;19.40;3.95;;;;;;;;;;4994365;28;20033;-63
2022/05/21 06:30:55;;;;;;;24.80;4.00;;;;;;;;;;4988273;28;20458;-63
2022/05/21 06:33:22;;;;;;;26.05;4.03;;;;;;;;;;4997091;28;21468;-63
2022/05/21 06:35:50;;;;;;;22.40;3.67;;;;;;;;;;4996283;28;20114;-63
2022/05/21 06:38:16;;;;;;;22.77;3.83;;;;;;;;;;4996294;28;20074;-63
2022/05/21 06:40:42;;;;;;;20.90;4.07;;;;;;;;;;4996281;28;20045;-63
2022/05/21 06:43:09;;;;;;;23.42;4.80;;;;;;;;;;4994376;28;20044;-63
2022/05/21 06:45:36;;;;;;;24.80;4.13;;;;;;;;;;4996949;28;20062;-63
2022/05/21 06:48:03;;;;;;;22.33;4.20;;;;;;;;;;4998379;28;20605;-63
2022/05/21 06:50:30;;;;;;;20.85;4.03;;;;;;;;;;4997380;28;20121;-62
2022/05/21 06:52:56;;;;;;;23.55;4.50;;;;;;;;;;4996541;28;20110;-62
2022/05/21 06:55:23;;;;;;;18.48;5.15;;;;;;;;;;4995787;28;20045;-62
2022/05/21 06:57:50;;;;;;;22.83;3.60;;;;;;;;;;4993365;28;20502;-62
2022/05/21 07:00:17;;;;;;;19.27;3.55;;;;;;;;;;4992644;28;20545;-62
2022/05/21 07:02:44;;;;;;;20.98;4.18;;;;;;;;;;4995000;28;20085;-62
2022/05/21 07:07:56;;;;;;;22.00;3.88;;;;;;;;;;4996998;28;20499;-62
2022/05/21 07:10:24;;;;;;;18.70;3.42;;;;;;;;;;4991952;28;20374;-62
2022/05/21 07:12:50;;;;;;;19.45;3.70;;;;;;;;;;4995529;28;20042;-61
2022/05/21 07:15:17;;;;;;;17.67;3.75;;;;;;;;;;4986233;28;20133;-62
2022/05/21 07:17:45;;;;;;;19.20;4.30;;;;;;;;;;5007052;28;20538;-63
2022/05/21 07:20:14;;;;;;;16.13;4.18;;;;;;;;;;5008172;28;20044;-63
2022/05/21 07:22:42;;;;;;;22.80;4.88;;;;;;;;;;4998381;28;20073;-62
2022/05/21 07:25:08;;;;;;;20.08;4.10;;;;;;;;;;4994649;28;20042;-62
2022/05/21 07:27:34;;;;;;;19.85;4.90;;;;;;;;;;5001369;28;20038;-63
2022/05/21 07:30:01;;;;;;;22.52;4.00;;;;;;;;;;5006638;28;20120;-62
2022/05/21 07:32:27;;;;;;;23.52;4.38;;;;;;;;;;5006988;28;20049;-63
2022/05/21 07:34:57;;;;;;;19.48;3.83;;;;;;;;;;4995112;28;20133;-62
2022/05/21 07:37:24;;;;;;;23.85;4.47;;;;;;;;;;4993911;28;20046;-62
2022/05/21 07:39:50;;;;;;;24.42;4.43;;;;;;;;;;4999136;28;20454;-62
2022/05/21 07:42:16;;;;;;;20.05;4.10;;;;;;;;;;4997817;28;20067;-61
2022/05/21 07:44:43;;;;;;;20.00;3.60;;;;;;;;;;5002875;28;20042;-63
2022/05/21 07:47:09;;;;;;;16.65;3.90;;;;;;;;;;4994672;28;20044;-63
2022/05/21 07:49:35;;;;;;;20.20;4.25;;;;;;;;;;4996584;28;20497;-63
2022/05/21 07:52:01;;;;;;;22.17;3.30;;;;;;;;;;4996506;28;20057;-63
2022/05/21 07:54:27;;;;;;;15.48;3.55;;;;;;;;;;4995633;28;20034;-62
2022/05/21 07:56:54;;;;;;;21.80;4.22;;;;;;;;;;5001333;28;20037;-63
2022/05/21 07:59:20;;;;;;;19.75;4.82;;;;;;;;;;5000522;28;20389;-63
2022/05/21 08:01:47;;;;;;;19.15;3.53;;;;;;;;;;4995607;28;20081;-63
2022/05/21 08:04:13;;;;;;;18.55;3.65;;;;;;;;;;4996564;28;20038;-62
2022/05/21 08:06:39;;;;;;;21.02;4.65;;;;;;;;;;4994657;28;20046;-63
2022/05/21 08:09:06;;;;;;;24.55;3.80;;;;;;;;;;4978705;28;20042;-62
2022/05/21 08:11:32;;;;;;;18.75;4.07;;;;;;;;;;4993795;28;20064;-62
2022/05/21 08:13:58;;;;;;;16.27;3.50;;;;;;;;;;4981166;28;20129;-62
2022/05/21 08:16:24;;;;;;;16.65;3.70;;;;;;;;;;4997068;28;20049;-62
2022/05/21 08:18:50;;;;;;;18.88;3.53;;;;;;;;;;4990628;28;20034;-62
2022/05/21 08:21:17;;;;;;;21.27;4.28;;;;;;;;;;4991373;28;20064;-62
2022/05/21 08:29:13;;;;;;;15.82;3.65;;;;;;;;;;5001922;28;20421;-62
2022/05/21 08:31:39;;;;;;;22.63;4.32;;;;;;;;;;4995733;28;20054;-62
2022/05/21 08:34:05;;;;;;;20.77;3.88;;;;;;;;;;4996394;28;20081;-62
2022/05/21 08:36:31;;;;;;;17.75;3.88;;;;;;;;;;4994953;28;20058;-62
2022/05/21 08:38:57;;;;;;;23.98;4.72;;;;;;;;;;4998513;28;20054;-62
2022/05/21 08:41:27;;;;;;;20.58;4.03;;;;;;;;;;4998304;28;20088;-62
2022/05/21 08:43:56;;;;;;;25.73;5.32;;;;;;;;;;4997728;28;20842;-62
2022/05/21 08:46:22;;;;;;;16.70;4.38;;;;;;;;;;4997684;28;20470;-62
2022/05/21 08:48:51;;;;;;;19.77;3.42;;;;;;;;;;4995370;28;20046;-62
2022/05/21 08:51:19;;;;;;;23.27;4.57;;;;;;;;;;4997289;28;20077;-62
2022/05/21 08:53:49;;;;;;;18.08;3.80;;;;;;;;;;4999214;28;20045;-62
2022/05/21 08:56:16;;;;;;;18.10;3.63;;;;;;;;;;4979658;28;20074;-62
2022/05/21 08:58:45;;;;;;;16.60;3.17;;;;;;;;;;4996425;28;20134;-62
2022/05/21 09:01:12;;;;;;;18.30;4.85;;;;;;;;;;4994552;28;20121;-62
2022/05/21 09:03:38;;;;;;;17.42;3.67;;;;;;;;;;4997449;28;20053;-63
2022/05/21 09:06:06;;;;;;;17.33;3.95;;;;;;;;;;4996321;28;20050;-62
2022/05/21 09:08:32;;;;;;;19.30;3.90;;;;;;;;;;4995454;28;20054;-62
2022/05/21 09:11:03;;;;;;;20.30;3.05;;;;;;;;;;4996374;28;20399;-62
2022/05/21 09:13:39;;;;;;;19.63;3.38;;;;;;;;;;4995999;28;20073;-62
2022/05/21 09:18:50;;;;;;;18.65;3.10;;;;;;;;;;4996863;28;21646;-62
2022/05/21 09:21:20;;;;;;;20.35;3.55;;;;;;;;;;5000302;28;20109;-62
2022/05/21 09:23:52;;;;;;;21.08;4.35;;;;;;;;;;4998173;28;20137;-62
2022/05/21 09:26:20;;;;;;;16.95;3.55;;;;;;;;;;4997462;28;20046;-62
2022/05/21 09:28:48;;;;;;;15.57;3.05;;;;;;;;;;4987409;28;20050;-62
2022/05/21 09:31:15;;;;;;;23.25;4.93;;;;;;;;;;4980118;28;20042;-62
2022/05/21 09:33:43;;;;;;;13.63;3.38;;;;;;;;;;5001953;28;20050;-63
2022/05/21 09:36:14;;;;;;;20.13;4.13;;;;;;;;;;4993798;28;20525;-62
2022/05/21 09:38:50;;;;;;;21.13;3.28;;;;;;;;;;4995657;28;20090;-62
2022/05/21 09:41:19;;;;;;;19.23;3.05;;;;;;;;;;4999941;28;20050;-62
2022/05/21 09:46:42;;;;;;;13.70;3.55;;;;;;;;;;4997318;28;20046;-63
2022/05/21 09:49:12;;;;;;;15.65;3.30;;;;;;;;;;4998782;28;20116;-63
2022/05/21 09:51:40;;;;;;;12.20;2.67;;;;;;;;;;4998258;28;20042;-62
2022/05/21 09:54:20;;;;;;;15.82;2.97;;;;;;;;;;5000359;28;20046;-63
2022/05/21 09:56:52;;;;;;;13.60;3.03;;;;;;;;;;5003277;28;20045;-63
2022/05/21 09:59:19;;;;;;;13.70;3.05;;;;;;;;;;5005161;28;20041;-63
2022/05/21 10:01:47;;;;;;;8.05;1.92;;;;;;;;;;5004868;28;20038;-63
2022/05/21 10:04:20;;;;;;;18.33;3.00;;;;;;;;;;5003380;28;20409;-62
2022/05/21 10:06:52;;;;;;;9.55;2.17;;;;;;;;;;5005382;28;20042;-62
2022/05/21 10:12:14;;;;;;;12.88;2.63;;;;;;;;;;5007598;28;20164;-62
2022/05/21 10:14:43;;;;;;;12.00;2.63;;;;;;;;;;5007837;28;20046;-62
2022/05/21 10:17:17;;;;;;;10.90;2.75;;;;;;;;;;5002638;28;20041;-63
2022/05/21 10:19:54;;;;;;;15.27;3.95;;;;;;;;;;5001435;28;20057;-62
2022/05/21 10:22:31;;;;;;;10.30;2.15;;;;;;;;;;5000717;28;20050;-62
2022/05/21 10:25:02;;;;;;;10.05;2.30;;;;;;;;;;4998029;28;20038;-63
2022/05/21 10:27:39;;;;;;;12.57;2.70;;;;;;;;;;4999502;28;20556;-62
2022/05/21 10:30:11;;;;;;;13.93;3.03;;;;;;;;;;4996619;28;20168;-63
2022/05/21 10:32:54;;;;;;;10.10;2.50;;;;;;;;;;4998795;28;20153;-62
2022/05/21 10:35:29;;;;;;;13.98;2.85;;;;;;;;;;4998940;28;20355;-79
2022/05/21 10:38:07;;;;;;;11.55;2.85;;;;;;;;;;4982749;28;20050;-62
2022/05/21 10:40:33;;;;;;;17.65;3.45;;;;;;;;;;4995261;28;20061;-62
2022/05/21 10:42:59;;;;;;;14.23;3.35;;;;;;;;;;4997457;28;20046;-62
2022/05/21 10:45:26;;;;;;;15.48;3.88;;;;;;;;;;4994118;28;20050;-62
2022/05/21 10:48:02;;;;;;;16.15;3.60;;;;;;;;;;4995215;28;20457;-62
2022/05/21 10:50:37;;;;;;;19.27;4.22;;;;;;;;;;4994160;28;20129;-62
2022/05/21 10:53:11;;;;;;;14.63;3.03;;;;;;;;;;4993819;28;20065;-62
2022/05/21 10:55:41;;;;;;;15.35;3.25;;;;;;;;;;4992714;28;20045;-62
2022/05/21 10:58:20;;;;;;;14.48;3.30;;;;;;;;;;4997266;28;20050;-62
2022/05/21 11:00:48;;;;;;;17.23;4.07;;;;;;;;;;4999700;28;20826;-63
2022/05/21 11:03:24;;;;;;;17.50;3.53;;;;;;;;;;4997036;28;20051;-62
2022/05/21 11:06:09;;;;;;;14.45;3.35;;;;;;;;;;4992441;28;20064;-64
2022/05/21 11:08:46;;;;;;;19.00;3.72;;;;;;;;;;4993971;28;20042;-64
2022/05/21 11:11:22;;;;;;;14.43;3.47;;;;;;;;;;4995482;28;20049;-63
2022/05/21 11:13:59;;;;;;;15.82;3.70;;;;;;;;;;4991810;28;20044;-64
2022/05/21 11:16:29;;;;;;;18.20;3.95;;;;;;;;;;4994350;28;20047;-64
2022/05/21 11:18:59;;;;;;;15.25;3.08;;;;;;;;;;4994746;28;20161;-64
2022/05/21 11:21:31;;;;;;;11.63;3.28;;;;;;;;;;4977821;28;20395;-65
2022/05/21 11:24:01;;;;;;;14.23;3.20;;;;;;;;;;4997920;28;20091;-64
2022/05/21 11:26:43;;;;;;;13.00;2.70;;;;;;;;;;4979882;28;20041;-64
2022/05/21 11:29:13;;;;;;;13.95;3.13;;;;;;;;;;4997805;28;20490;-64
2022/05/21 11:37:22;;;;;;;14.70;2.53;;;;;;;;;;4995406;28;20046;-64
2022/05/21 11:39:49;;;;;;;10.32;2.60;;;;;;;;;;5000645;28;20332;-64
2022/05/21 11:42:16;;;;;;;14.63;3.22;;;;;;;;;;4994679;28;20072;-64
2022/05/21 11:44:55;;;;;;;14.75;2.65;;;;;;;;;;4997913;28;20038;-64
2022/05/21 11:47:22;;;;;;;14.25;3.40;;;;;;;;;;4995515;28;20050;-64
2022/05/21 11:49:59;;;;;;;13.07;2.65;;;;;;;;;;4995111;28;20042;-64
2022/05/21 11:52:26;;;;;;;11.38;3.03;;;;;;;;;;4994394;28;20507;-64
2022/05/21 11:54:54;;;;;;;11.05;2.85;;;;;;;;;;4991738;28;20453;-64
2022/05/21 11:57:29;;;;;;;17.73;3.22;;;;;;;;;;4992002;28;20053;-64
2022/05/21 11:59:55;;;;;;;10.30;2.45;;;;;;;;;;4994483;28;20153;-63
2022/05/21 12:02:23;;;;;;;8.40;2.20;;;;;;;;;;4995821;28;20408;-64
2022/05/21 12:04:51;;;;;;;10.15;2.60;;;;;;;;;;4997282;28;20389;-65
2022/05/21 12:07:38;;;;;;;11.60;2.35;;;;;;;;;;4994160;28;20050;-64
2022/05/21 12:10:09;;;;;;;11.30;2.40;;;;;;;;;;4994032;28;21809;-64
2022/05/21 12:12:58;;;;;;;7.97;2.25;;;;;;;;;;4994504;28;20344;-64
2022/05/21 12:15:33;;;;;;;11.77;2.88;;;;;;;;;;4995892;28;20066;-64
2022/05/21 12:18:03;;;;;;;9.13;2.00;;;;;;;;;;4993536;28;20510;-65
2022/05/21 12:20:40;;;;;;;13.95;2.45;;;;;;;;;;5001001;28;21213;-65
2022/05/21 12:23:11;;;;;;;10.75;2.10;;;;;;;;;;4994651;28;20069;-64
2022/05/21 12:25:43;;;;;;;11.05;1.80;;;;;;;;;;4994668;28;20050;-64
2022/05/21 12:28:10;;;;;;;8.27;1.85;;;;;;;;;;4996182;28;20477;-70
2022/05/21 12:30:37;;;;;;;11.05;2.78;;;;;;;;;;4981157;28;20050;-63
2022/05/21 12:33:06;;;;;;;10.73;2.20;;;;;;;;;;4994251;28;20632;-63
2022/05/21 12:35:38;;;;;;;15.00;2.88;;;;;;;;;;4996355;28;20061;-62
2022/05/21 12:38:09;;;;;;;13.98;3.00;;;;;;;;;;4979465;28;20490;-62
2022/05/21 12:40:42;;;;;;;10.95;2.72;;;;;;;;;;4977414;28;20079;-64
2022/05/21 12:43:09;;;;;;;19.58;3.47;;;;;;;;;;4989877;28;20514;-63
2022/05/21 12:45:42;;;;;;;13.57;2.80;;;;;;;;;;4994634;28;20079;-62
2022/05/21 12:48:08;;;;;;;;;;;;;;;;;;4998685;28;20038;-62
2022/05/21 12:50:35;;;;;;;15.30;2.78;;;;;;;;;;4988318;28;20353;-63
2022/05/21 12:53:04;;;;;;;14.55;3.05;;;;;;;;;;4981676;28;20052;-63
2022/05/21 12:55:30;;;;;;;15.60;3.60;;;;;;;;;;5006825;28;20105;-62
2022/05/21 12:57:59;;;;;;;11.27;2.85;;;;;;;;;;4986964;28;20053;-63
2022/05/21 13:00:29;;;;;;;13.02;3.63;;;;;;;;;;4998724;28;20039;-63
2022/05/21 13:02:56;;;;;;;12.60;2.97;;;;;;;;;;4997259;28;20050;-62
2022/05/21 13:05:25;;;;;;;13.45;3.10;;;;;;;;;;5004868;28;20037;-62
2022/05/21 13:07:52;;;;;;;13.38;2.72;;;;;;;;;;5004063;28;20046;-62
2022/05/21 13:10:25;;;;;;;15.80;2.58;;;;;;;;;;5003150;28;20081;-63
2022/05/21 13:12:56;;;;;;;13.93;2.83;;;;;;;;;;5000904;28;20045;-62
2022/05/21 13:15:25;;;;;;;19.77;2.60;;;;;;;;;;5000085;28;20045;-63
2022/05/21 13:17:52;;;;;;;15.57;3.38;;;;;;;;;;4999905;28;20038;-62
2022/05/21 13:20:18;;;;;;;12.70;3.22;;;;;;;;;;4986076;28;20050;-62
2022/05/21 13:22:56;;;;;;;13.90;2.70;;;;;;;;;;5000912;28;20050;-62
2022/05/21 13:25:23;;;;;;;10.60;2.90;;;;;;;;;;5002030;28;20076;-63
2022/05/21 13:27:50;;;;;;;17.60;3.22;;;;;;;;;;5001085;28;20045;-62
2022/05/21 13:30:21;;;;;;;14.63;3.55;;;;;;;;;;5006552;28;20042;-62
2022/05/21 13:32:54;;;;;;;13.45;3.13;;;;;;;;;;5005674;28;20042;-63
2022/05/21 13:35:23;;;;;;;14.93;3.50;;;;;;;;;;5000253;28;20079;-63
2022/05/21 13:37:50;;;;;;;13.55;2.80;;;;;;;;;;5004874;28;20053;-62
2022/05/21 13:40:24;;;;;;;10.55;3.38;;;;;;;;;;5000275;28;20472;-62
2022/05/21 13:42:52;;;;;;;19.00;3.92;;;;;;;;;;5002802;28;20081;-63
2022/05/21 13:45:21;;;;;;;15.63;3.03;;;;;;;;;;4997688;28;20129;-63
2022/05/21 13:47:50;;;;;;;15.63;3.17;;;;;;;;;;4998719;28;20050;-62
2022/05/21 13:50:19;;;;;;;17.40;3.47;;;;;;;;;;4996091;28;20490;-62
2022/05/21 13:52:45;;;;;;;17.27;3.55;;;;;;;;;;4999588;28;20034;-62
2022/05/21 13:55:13;;;;;;;20.02;3.90;;;;;;;;;;4996228;28;20038;-63
2022/05/21 13:57:40;;;;;;;17.80;3.80;;;;;;;;;;5001567;28;20100;-62
2022/05/21 14:00:16;;;;;;;18.50;2.90;;;;;;;;;;4980394;28;20050;-63
2022/05/21 14:02:44;;;;;;;23.20;4.80;;;;;;;;;;5003705;28;20626;-63
2022/05/21 14:05:21;;;;;;;13.30;3.47;;;;;;;;;;5004886;28;20039;-63
2022/05/21 14:07:51;;;;;;;14.23;3.00;;;;;;;;;;5001384;28;20414;-63
2022/05/21 14:10:29;;;;;;;14.65;3.08;;;;;;;;;;4989564;28;20109;-63
2022/05/21 14:12:56;;;;;;;11.65;3.15;;;;;;;;;;4984979;28;20434;-63
2022/05/21 14:15:33;;;;;;;16.27;3.25;;;;;;;;;;5001689;28;20045;-62
2022/05/21 14:18:03;;;;;;;17.02;2.95;;;;;;;;;;4999622;28;20222;-63
2022/05/21 14:20:32;;;;;;;19.75;4.32;;;;;;;;;;5008901;28;20553;-63
2022/05/21 14:23:19;;;;;;;16.00;3.45;;;;;;;;;;5001018;28;20081;-63
2022/05/21 14:25:45;;;;;;;17.98;3.33;;;;;;;;;;5004798;28;20041;-62
2022/05/21 14:28:15;;;;;;;14.50;2.72;;;;;;;;;;5003605;28;20379;-62
2022/05/21 14:30:43;;;;;;;13.10;3.03;;;;;;;;;;5004721;28;20475;-62
2022/05/21 14:33:10;;;;;;;12.45;2.75;;;;;;;;;;5000938;28;20463;-62
2022/05/21 14:35:37;;;;;;;15.02;3.40;;;;;;;;;;4997646;28;20153;-63
2022/05/21 14:38:03;;;;;;;14.45;3.13;;;;;;;;;;4998462;28;20053;-62
2022/05/21 14:40:31;;;;;;;19.05;2.83;;;;;;;;;;4995435;28;20138;-63
2022/05/21 14:43:02;;;;;;;11.73;2.90;;;;;;;;;;4979824;28;20050;-62
2022/05/21 14:45:29;;;;;;;23.15;3.85;;;;;;;;;;5003134;28;20054;-62
2022/05/21 14:47:56;;;;;;;14.02;3.97;;;;;;;;;;5001260;28;20042;-63
2022/05/21 14:53:12;;;;;;;13.48;2.58;;;;;;;;;;4998722;28;20049;-62
2022/05/21 14:55:39;;;;;;;14.25;3.05;;;;;;;;;;4995393;28;20049;-62
2022/05/21 14:58:05;;;;;;;12.75;2.88;;;;;;;;;;4997670;28;20045;-63
2022/05/21 15:00:32;;;;;;;14.98;3.15;;;;;;;;;;5005844;28;20401;-63
2022/05/21 15:02:59;;;;;;;15.68;2.78;;;;;;;;;;4988735;28;20050;-63
2022/05/21 15:05:26;;;;;;;15.73;3.47;;;;;;;;;;4979992;28;20062;-63
2022/05/21 15:07:55;;;;;;;11.50;2.97;;;;;;;;;;5000585;28;20037;-63
2022/05/21 15:10:22;;;;;;;14.15;3.53;;;;;;;;;;4997179;28;20038;-62
2022/05/21 15:12:49;;;;;;;12.07;2.70;;;;;;;;;;4999524;28;20102;-63
2022/05/21 15:15:16;;;;;;;13.73;2.83;;;;;;;;;;4978696;28;20136;-62